TimeEST,TemperatureF,Dew PointF,Humidity,Sea Level PressureIn,VisibilityMPH,Wind Direction,Wind SpeedMPH,Gust SpeedMPH,PrecipitationIn,Events,Conditions,WindDirDegrees,DateUTC
12:15 AM,42.8,28.4,57,30.06,10.0,North,6.9,-,N/A,,Overcast,360,2013-03-03 05:15:00
12:35 AM,42.8,26.6,53,30.06,10.0,North,10.4,17.3,N/A,,Overcast,350,2013-03-03 05:35:00
12:55 AM,42.8,28.4,57,30.06,10.0,North,9.2,-,N/A,,Overcast,360,2013-03-03 05:55:00
1:15 AM,42.8,28.4,57,30.07,10.0,NNW,6.9,-,N/A,,Overcast,340,2013-03-03 06:15:00
1:35 AM,42.8,28.4,57,30.06,10.0,NNW,5.8,-,N/A,,Overcast,340,2013-03-03 06:35:00
1:55 AM,41.0,28.4,61,30.05,10.0,North,9.2,-,N/A,,Overcast,360,2013-03-03 06:55:00
2:15 AM,41.0,28.4,61,30.04,10.0,North,6.9,-,N/A,,Scattered Clouds,360,2013-03-03 07:15:00
2:35 AM,41.0,28.4,61,30.05,10.0,Calm,Calm,-,N/A,,Clear,0,2013-03-03 07:35:00
2:55 AM,39.2,28.4,65,30.05,10.0,Calm,Calm,-,N/A,,Clear,0,2013-03-03 07:55:00
3:15 AM,39.2,28.4,65,30.05,10.0,Calm,Calm,-,N/A,,Mostly Cloudy,0,2013-03-03 08:15:00
3:35 AM,39.2,28.4,65,30.04,10.0,North,5.8,-,N/A,,Overcast,360,2013-03-03 08:35:00
3:55 AM,39.2,28.4,65,30.04,10.0,NNW,3.5,-,N/A,,Mostly Cloudy,340,2013-03-03 08:55:00
4:15 AM,37.4,30.2,75,30.05,10.0,Calm,Calm,-,N/A,,Mostly Cloudy,0,2013-03-03 09:15:00
4:35 AM,37.4,30.2,75,30.05,10.0,North,4.6,-,N/A,,Overcast,350,2013-03-03 09:35:00
4:55 AM,39.2,30.2,70,30.05,10.0,NNW,4.6,-,N/A,,Overcast,340,2013-03-03 09:55:00
5:15 AM,39.2,30.2,70,30.06,10.0,North,3.5,-,N/A,,Overcast,350,2013-03-03 10:15:00
5:35 AM,39.2,30.2,70,30.06,10.0,North,6.9,-,N/A,,Overcast,350,2013-03-03 10:35:00
5:55 AM,39.2,30.2,70,30.06,10.0,North,5.8,-,N/A,,Overcast,350,2013-03-03 10:55:00
6:15 AM,39.2,30.2,70,30.06,10.0,NNW,4.6,-,N/A,,Overcast,340,2013-03-03 11:15:00
6:35 AM,39.2,30.2,70,30.07,10.0,North,4.6,-,N/A,,Overcast,360,2013-03-03 11:35:00
6:55 AM,39.2,30.2,70,30.08,10.0,North,5.8,-,N/A,,Overcast,350,2013-03-03 11:55:00
7:15 AM,41.0,30.2,65,30.08,10.0,Calm,Calm,-,N/A,,Overcast,0,2013-03-03 12:15:00
7:35 AM,41.0,30.2,65,30.09,10.0,North,4.6,-,N/A,,Overcast,360,2013-03-03 12:35:00
7:55 AM,41.0,28.4,61,30.09,10.0,North,3.5,-,N/A,,Overcast,350,2013-03-03 12:55:00
8:15 AM,41.0,28.4,61,30.09,10.0,North,6.9,-,N/A,,Overcast,350,2013-03-03 13:15:00
8:35 AM,41.0,28.4,61,30.09,10.0,NNW,5.8,-,N/A,,Overcast,340,2013-03-03 13:35:00
8:55 AM,41.0,28.4,61,30.09,10.0,North,6.9,17.3,N/A,,Overcast,350,2013-03-03 13:55:00
9:15 AM,42.8,28.4,57,30.10,10.0,North,6.9,-,N/A,,Overcast,350,2013-03-03 14:15:00
9:35 AM,42.8,28.4,57,30.10,10.0,NNW,5.8,9.2,N/A,,Overcast,330,2013-03-03 14:35:00
9:55 AM,42.8,28.4,57,30.11,10.0,NNW,5.8,-,N/A,,Overcast,340,2013-03-03 14:55:00
10:15 AM,42.8,26.6,53,30.11,10.0,NNW,8.1,-,N/A,,Overcast,340,2013-03-03 15:15:00
10:35 AM,44.6,26.6,49,30.11,10.0,North,8.1,-,N/A,,Overcast,350,2013-03-03 15:35:00
10:55 AM,44.6,28.4,53,30.11,10.0,NNW,9.2,-,N/A,,Overcast,330,2013-03-03 15:55:00
11:15 AM,44.6,28.4,53,30.11,10.0,NNW,4.6,-,N/A,,Overcast,330,2013-03-03 16:15:00
11:35 AM,44.6,28.4,53,30.11,10.0,WNW,5.8,-,N/A,,Overcast,300,2013-03-03 16:35:00
11:55 AM,44.6,28.4,53,30.10,10.0,NW,5.8,-,N/A,,Overcast,310,2013-03-03 16:55:00
12:15 PM,46.4,30.2,53,30.10,10.0,NNW,4.6,-,N/A,,Overcast,330,2013-03-03 17:15:00
12:35 PM,46.4,30.2,53,30.09,10.0,NNW,9.2,-,N/A,,Overcast,340,2013-03-03 17:35:00
12:55 PM,46.4,30.2,53,30.08,10.0,NNW,6.9,-,N/A,,Overcast,340,2013-03-03 17:55:00
1:15 PM,46.4,30.2,53,30.07,10.0,NW,4.6,-,N/A,,Overcast,310,2013-03-03 18:15:00
1:35 PM,48.2,30.2,50,30.06,10.0,NW,5.8,-,N/A,,Overcast,320,2013-03-03 18:35:00
1:55 PM,48.2,30.2,50,30.06,10.0,NNW,6.9,17.3,N/A,,Overcast,330,2013-03-03 18:55:00
2:15 PM,50.0,32.0,50,30.06,10.0,WNW,4.6,17.3,N/A,,Overcast,290,2013-03-03 19:15:00
2:35 PM,48.2,32.0,54,30.06,10.0,West,5.8,-,N/A,,Overcast,270,2013-03-03 19:35:00
2:55 PM,48.2,32.0,54,30.06,10.0,West,6.9,-,N/A,,Overcast,280,2013-03-03 19:55:00
3:15 PM,50.0,32.0,50,30.06,10.0,WNW,5.8,-,N/A,,Overcast,290,2013-03-03 20:15:00
3:35 PM,50.0,32.0,50,30.05,10.0,WNW,8.1,-,N/A,,Mostly Cloudy,290,2013-03-03 20:35:00
3:55 PM,50.0,32.0,50,30.05,10.0,WNW,8.1,17.3,N/A,,Mostly Cloudy,300,2013-03-03 20:55:00
4:15 PM,50.0,32.0,50,30.05,10.0,NNW,10.4,18.4,N/A,,Overcast,340,2013-03-03 21:15:00
4:35 PM,46.4,32.0,57,30.06,10.0,NNW,6.9,-,N/A,,Mostly Cloudy,330,2013-03-03 21:35:00
4:55 PM,46.4,32.0,57,30.06,10.0,NNW,4.6,-,N/A,,Mostly Cloudy,330,2013-03-03 21:55:00
5:15 PM,46.4,30.2,53,30.07,10.0,NNW,5.8,-,N/A,,Scattered Clouds,330,2013-03-03 22:15:00
5:35 PM,46.4,30.2,53,30.07,10.0,North,5.8,-,N/A,,Scattered Clouds,350,2013-03-03 22:35:00
5:55 PM,44.6,30.2,57,30.08,10.0,West,3.5,-,N/A,,Clear,280,2013-03-03 22:55:00
6:15 PM,44.6,30.2,57,30.09,10.0,West,3.5,-,N/A,,Clear,280,2013-03-03 23:15:00
6:35 PM,42.8,30.2,61,30.10,10.0,Calm,Calm,-,N/A,,Clear,0,2013-03-03 23:35:00
6:55 PM,42.8,32.0,66,30.11,10.0,Calm,Calm,-,N/A,,Clear,0,2013-03-03 23:55:00
7:15 PM,42.8,32.0,66,30.11,10.0,Calm,Calm,-,N/A,,Clear,0,2013-03-04 00:15:00
7:35 PM,41.0,32.0,70,30.13,10.0,Calm,Calm,-,N/A,,Clear,0,2013-03-04 00:35:00
7:55 PM,41.0,32.0,70,30.14,10.0,Calm,Calm,-,N/A,,Clear,0,2013-03-04 00:55:00
8:15 PM,41.0,32.0,70,30.14,10.0,Calm,Calm,-,N/A,,Clear,0,2013-03-04 01:15:00
8:35 PM,41.0,30.2,65,30.15,10.0,Calm,Calm,-,N/A,,Clear,0,2013-03-04 01:35:00
8:55 PM,39.2,30.2,70,30.16,10.0,Calm,Calm,-,N/A,,Clear,0,2013-03-04 01:55:00
9:15 PM,37.4,30.2,75,30.16,10.0,Calm,Calm,-,N/A,,Clear,0,2013-03-04 02:15:00
9:35 PM,35.6,30.2,81,30.17,10.0,Calm,Calm,-,N/A,,Clear,0,2013-03-04 02:35:00
9:55 PM,33.8,30.2,87,30.17,10.0,Calm,Calm,-,N/A,,Clear,0,2013-03-04 02:55:00
10:15 PM,33.8,30.2,87,30.17,10.0,Calm,Calm,-,N/A,,Clear,0,2013-03-04 03:15:00
10:35 PM,33.8,30.2,87,30.18,10.0,Calm,Calm,-,N/A,,Clear,0,2013-03-04 03:35:00
10:55 PM,32.0,30.2,93,30.18,10.0,Calm,Calm,-,N/A,,Clear,0,2013-03-04 03:55:00
11:15 PM,32.0,30.2,93,30.18,10.0,Calm,Calm,-,N/A,,Clear,0,2013-03-04 04:15:00
11:35 PM,32.0,30.2,93,30.19,10.0,Calm,Calm,-,N/A,,Clear,0,2013-03-04 04:35:00
11:55 PM,32.0,30.2,93,30.19,10.0,Calm,Calm,-,N/A,,Clear,0,2013-03-04 04:55:00